Time;durP1;ratioP1;P1;durP2;ratioP2;P2;SDS_P1;SDS_P2;PMS_P1;PMS_P2;Temp;Humidity;BMP_temperature;BMP_pressure;BME280_temperature;BME280_humidity;BME280_pressure;Samples;Min_cycle;Max_cycle;Signal;HPM_P1;HPM_P2
2024/03/21 02:38:42;;;;;;;1999.90;999.90;;;;;;;;;;6013844;23;21015;-70
2024/03/21 02:41:27;;;;;;;1999.90;999.90;;;;;;;;;;4982285;28;20334;-69
2024/03/21 02:44:12;;;;;;;1999.90;999.90;;;;;;;;;;4984463;28;20282;-70
2024/03/21 02:46:56;;;;;;;1999.90;999.90;;;;;;;;;;4981784;28;20212;-69
2024/03/21 02:49:41;;;;;;;1999.90;999.90;;;;;;;;;;4993539;28;20222;-69
2024/03/21 02:52:25;;;;;;;1999.90;999.90;;;;;;;;;;4979696;28;20217;-69
2024/03/21 02:55:11;;;;;;;1999.90;999.90;;;;;;;;;;4975842;28;20243;-70
2024/03/21 02:57:55;;;;;;;1999.90;999.90;;;;;;;;;;4973082;28;20219;-70
2024/03/21 03:00:39;;;;;;;1999.90;999.90;;;;;;;;;;4981484;28;20308;-70
2024/03/21 03:03:23;;;;;;;1999.90;999.90;;;;;;;;;;4992530;28;20412;-72
2024/03/21 03:06:08;;;;;;;1999.90;999.90;;;;;;;;;;4974006;28;20238;-70
2024/03/21 03:08:52;;;;;;;1999.90;999.90;;;;;;;;;;4973972;28;20600;-70
2024/03/21 03:11:39;;;;;;;1999.90;999.90;;;;;;;;;;4973950;28;20253;-70
2024/03/21 03:14:23;;;;;;;1999.90;999.90;;;;;;;;;;4973365;28;20233;-70
2024/03/21 03:17:08;;;;;;;1999.90;999.90;;;;;;;;;;4983615;28;20255;-70
2024/03/21 03:19:52;;;;;;;1999.90;999.90;;;;;;;;;;4993130;28;20227;-71
2024/03/21 03:22:37;;;;;;;1999.90;999.90;;;;;;;;;;4993509;28;20215;-70
2024/03/21 03:25:20;;;;;;;1999.90;999.90;;;;;;;;;;4992988;28;20579;-71
2024/03/21 03:28:07;;;;;;;1999.90;999.90;;;;;;;;;;4992972;28;20206;-70
2024/03/21 03:30:51;;;;;;;1999.90;999.90;;;;;;;;;;4992751;28;20211;-71
2024/03/21 03:36:39;;;;;;;1999.90;999.90;;;;;;;;;;4992991;28;20198;-71
2024/03/21 03:39:24;;;;;;;1999.90;999.90;;;;;;;;;;4992792;28;20236;-70
2024/03/21 03:42:10;;;;;;;1999.90;999.90;;;;;;;;;;4992690;28;20208;-70
2024/03/21 03:44:56;;;;;;;1999.90;999.90;;;;;;;;;;4992639;28;20224;-70
2024/03/21 03:47:41;;;;;;;1999.90;999.90;;;;;;;;;;4993170;28;20723;-70
2024/03/21 03:50:26;;;;;;;1999.90;999.90;;;;;;;;;;4992703;28;20286;-72
2024/03/21 03:53:11;;;;;;;1999.90;999.90;;;;;;;;;;4986484;28;20220;-70
2024/03/21 03:55:55;;;;;;;1999.90;999.90;;;;;;;;;;4973149;28;20207;-70
2024/03/21 03:58:40;;;;;;;1999.90;999.90;;;;;;;;;;4973245;28;20219;-71
2024/03/21 04:01:26;;;;;;;1999.90;999.90;;;;;;;;;;4973131;28;20578;-71
2024/03/21 04:04:10;;;;;;;1999.90;999.90;;;;;;;;;;4973156;28;20201;-71
2024/03/21 04:06:56;;;;;;;1999.90;999.90;;;;;;;;;;4973105;28;20206;-69
2024/03/21 04:09:41;;;;;;;1999.90;999.90;;;;;;;;;;4972940;28;20262;-70
2024/03/21 04:12:25;;;;;;;1999.90;999.90;;;;;;;;;;4972582;28;20234;-71
2024/03/21 04:15:11;;;;;;;1999.90;999.90;;;;;;;;;;4976540;28;20239;-71
2024/03/21 04:17:56;;;;;;;1999.90;999.90;;;;;;;;;;4976821;28;20598;-69
2024/03/21 04:20:41;;;;;;;1999.90;999.90;;;;;;;;;;4977369;28;20267;-70
2024/03/21 04:23:25;;;;;;;1999.90;999.90;;;;;;;;;;4976760;28;20208;-70
2024/03/21 04:26:10;;;;;;;1999.90;999.90;;;;;;;;;;4976103;28;20205;-69
2024/03/21 04:28:55;;;;;;;1999.90;999.90;;;;;;;;;;4976608;28;20231;-69
2024/03/21 04:31:40;;;;;;;1999.90;999.90;;;;;;;;;;4976747;28;20873;-70
2024/03/21 04:34:25;;;;;;;1999.90;999.90;;;;;;;;;;4976658;28;20324;-69
2024/03/21 04:37:14;;;;;;;1999.90;999.90;;;;;;;;;;4976658;28;20204;-69
2024/03/21 04:39:59;;;;;;;1999.90;999.90;;;;;;;;;;4976551;28;20239;-70
2024/03/21 04:42:44;;;;;;;1999.90;999.90;;;;;;;;;;4977414;28;20296;-70
2024/03/21 04:45:29;;;;;;;1999.90;999.90;;;;;;;;;;4976341;28;20215;-70
2024/03/21 04:48:14;;;;;;;1999.90;999.90;;;;;;;;;;4976729;28;20672;-70
2024/03/21 04:50:59;;;;;;;1999.90;999.90;;;;;;;;;;4975472;28;20414;-70
2024/03/21 04:53:45;;;;;;;1999.90;999.90;;;;;;;;;;4976078;28;20301;-70
2024/03/21 04:56:29;;;;;;;1999.90;999.90;;;;;;;;;;4975896;28;20229;-70
2024/03/21 04:59:13;;;;;;;1999.90;999.90;;;;;;;;;;4975632;28;20597;-69
2024/03/21 05:01:58;;;;;;;1999.90;999.90;;;;;;;;;;4975764;28;20283;-71
2024/03/21 05:04:42;;;;;;;1999.90;999.90;;;;;;;;;;4976056;28;20677;-70
2024/03/21 05:07:28;;;;;;;1999.90;999.90;;;;;;;;;;4973710;28;20708;-71
2024/03/21 05:10:13;;;;;;;1999.90;999.90;;;;;;;;;;4974817;28;20719;-70
2024/03/21 05:12:59;;;;;;;1999.90;999.90;;;;;;;;;;4975969;28;20256;-71
2024/03/21 05:15:47;;;;;;;1999.90;999.90;;;;;;;;;;4975266;28;20232;-71
2024/03/21 05:18:32;;;;;;;1999.90;999.90;;;;;;;;;;4975695;28;20207;-71
2024/03/21 05:21:16;;;;;;;1999.90;999.90;;;;;;;;;;4975371;28;20212;-71
2024/03/21 05:24:02;;;;;;;1999.90;999.90;;;;;;;;;;4975182;28;20208;-71
2024/03/21 05:26:46;;;;;;;1999.90;999.90;;;;;;;;;;4975157;28;20208;-71
2024/03/21 05:29:31;;;;;;;1999.90;999.90;;;;;;;;;;4975326;28;20297;-71
2024/03/21 05:32:15;;;;;;;1999.90;999.90;;;;;;;;;;4973138;28;20211;-71
2024/03/21 05:35:00;;;;;;;1999.90;999.90;;;;;;;;;;4974866;28;20229;-71
2024/03/21 05:37:44;;;;;;;1999.90;999.90;;;;;;;;;;4975350;28;20372;-71
2024/03/21 05:40:30;;;;;;;1999.90;999.90;;;;;;;;;;4974785;28;20287;-71
2024/03/21 05:43:14;;;;;;;1999.90;999.90;;;;;;;;;;4974080;28;20957;-71
2024/03/21 05:45:59;;;;;;;1999.90;999.90;;;;;;;;;;4974900;28;20582;-71
2024/03/21 05:48:43;;;;;;;1999.90;999.90;;;;;;;;;;4975297;28;20239;-71
2024/03/21 05:51:28;;;;;;;1999.90;999.90;;;;;;;;;;4975312;28;20623;-71
2024/03/21 05:54:13;;;;;;;1999.90;999.90;;;;;;;;;;4974839;28;20220;-71
2024/03/21 05:56:58;;;;;;;1999.90;999.90;;;;;;;;;;4975436;28;20255;-71
2024/03/21 05:59:44;;;;;;;1999.90;999.90;;;;;;;;;;4975025;28;20307;-71
2024/03/21 06:02:28;;;;;;;1999.90;999.90;;;;;;;;;;4975113;28;20688;-71
2024/03/21 06:05:13;;;;;;;1999.90;999.90;;;;;;;;;;4974831;28;20207;-71
2024/03/21 06:07:56;;;;;;;1999.90;999.90;;;;;;;;;;4975024;28;20252;-71
2024/03/21 06:10:41;;;;;;;1999.90;999.90;;;;;;;;;;4974783;28;20207;-71
2024/03/21 06:13:27;;;;;;;1999.90;999.90;;;;;;;;;;4974638;28;20224;-70
2024/03/21 06:16:11;;;;;;;1999.90;999.90;;;;;;;;;;4974932;28;20416;-71
2024/03/21 06:18:55;;;;;;;1999.90;999.90;;;;;;;;;;4973653;28;20422;-71
2024/03/21 06:21:40;;;;;;;1999.90;999.90;;;;;;;;;;4975035;28;20200;-71
2024/03/21 06:24:24;;;;;;;1999.90;999.90;;;;;;;;;;4974619;28;20303;-71
2024/03/21 06:27:09;;;;;;;1999.90;999.90;;;;;;;;;;4955269;28;20212;-71
2024/03/21 06:29:56;;;;;;;1999.90;999.90;;;;;;;;;;4960093;28;20234;-71
2024/03/21 06:32:40;;;;;;;1999.90;999.90;;;;;;;;;;4973938;28;20311;-71
2024/03/21 06:35:25;;;;;;;1999.90;999.90;;;;;;;;;;4973163;28;20443;-71
2024/03/21 06:38:09;;;;;;;1999.90;999.90;;;;;;;;;;4974451;28;20343;-71
2024/03/21 06:40:54;;;;;;;1999.90;999.90;;;;;;;;;;4973838;28;20251;-71
2024/03/21 06:43:38;;;;;;;1999.90;999.90;;;;;;;;;;4974190;28;20207;-71
2024/03/21 06:46:24;;;;;;;1999.90;999.90;;;;;;;;;;4973359;28;20247;-71
2024/03/21 06:49:09;;;;;;;1999.90;999.90;;;;;;;;;;4965029;28;20231;-71
2024/03/21 06:51:54;;;;;;;1999.90;999.90;;;;;;;;;;4974389;28;20691;-71
2024/03/21 06:54:41;;;;;;;1999.90;999.90;;;;;;;;;;4954445;29;20620;-71
2024/03/21 06:57:25;;;;;;;1999.90;999.90;;;;;;;;;;4957747;28;20247;-70
2024/03/21 07:00:12;;;;;;;1999.90;999.90;;;;;;;;;;4963436;28;20223;-70
2024/03/21 07:02:58;;;;;;;1999.90;999.90;;;;;;;;;;4974117;28;20204;-71
2024/03/21 07:05:43;;;;;;;1999.90;999.90;;;;;;;;;;4973827;28;20211;-71
2024/03/21 07:08:27;;;;;;;1999.90;999.90;;;;;;;;;;4974043;28;20260;-69
2024/03/21 07:11:13;;;;;;;1999.90;999.90;;;;;;;;;;4973543;28;20423;-69
2024/03/21 07:13:59;;;;;;;1999.90;999.90;;;;;;;;;;4973749;28;20227;-69
2024/03/21 07:16:44;;;;;;;1999.90;999.90;;;;;;;;;;4973850;28;20208;-71
2024/03/21 07:19:33;;;;;;;1999.90;999.90;;;;;;;;;;4973784;28;20590;-71
2024/03/21 07:22:18;;;;;;;1999.90;999.90;;;;;;;;;;4973984;28;20248;-71
2024/03/21 07:25:02;;;;;;;1999.90;999.90;;;;;;;;;;4973485;28;20208;-71
2024/03/21 07:27:47;;;;;;;1999.90;999.90;;;;;;;;;;4973702;28;20284;-68
2024/03/21 07:30:31;;;;;;;1999.90;999.90;;;;;;;;;;4971822;28;21040;-71
2024/03/21 07:33:17;;;;;;;1999.90;999.90;;;;;;;;;;4973524;28;20681;-71
2024/03/21 07:36:03;;;;;;;1999.90;999.90;;;;;;;;;;4973621;28;20692;-71
2024/03/21 07:38:48;;;;;;;1999.90;999.90;;;;;;;;;;4973259;28;20275;-70
2024/03/21 07:41:32;;;;;;;1999.90;999.90;;;;;;;;;;4973173;28;20204;-71
2024/03/21 07:44:17;;;;;;;1999.90;999.90;;;;;;;;;;4973179;28;20211;-70
2024/03/21 07:47:01;;;;;;;1999.90;999.90;;;;;;;;;;4972752;28;20219;-71
2024/03/21 07:49:46;;;;;;;1999.90;999.90;;;;;;;;;;4973098;28;20244;-68
2024/03/21 07:52:32;;;;;;;1999.90;999.90;;;;;;;;;;4973222;28;20207;-69
2024/03/21 07:55:16;;;;;;;1999.90;999.90;;;;;;;;;;4972992;28;20607;-69
2024/03/21 07:58:01;;;;;;;1999.90;999.90;;;;;;;;;;4973020;28;20196;-69
2024/03/21 08:00:48;;;;;;;1999.90;999.90;;;;;;;;;;4973219;28;20211;-69
2024/03/21 08:03:32;;;;;;;1999.90;999.90;;;;;;;;;;4973000;28;20689;-69
2024/03/21 08:06:17;;;;;;;1999.90;999.90;;;;;;;;;;4973273;28;20592;-67
2024/03/21 08:09:03;;;;;;;1999.90;999.90;;;;;;;;;;4953849;28;20348;-67
2024/03/21 08:11:50;;;;;;;1999.90;999.90;;;;;;;;;;4968473;28;20262;-70
2024/03/21 08:14:34;;;;;;;1999.90;999.90;;;;;;;;;;4953420;29;20231;-69
2024/03/21 08:17:19;;;;;;;1999.90;999.90;;;;;;;;;;4964895;28;20674;-68
2024/03/21 08:20:04;;;;;;;1999.90;999.90;;;;;;;;;;4973082;28;20791;-69
2024/03/21 08:22:49;;;;;;;1999.90;999.90;;;;;;;;;;4973272;28;20279;-68
2024/03/21 08:25:35;;;;;;;1999.90;999.90;;;;;;;;;;4972371;28;20414;-69
2024/03/21 08:28:20;;;;;;;1999.90;999.90;;;;;;;;;;4971810;28;20211;-69
2024/03/21 08:31:04;;;;;;;1999.90;999.90;;;;;;;;;;4973371;28;20212;-70
2024/03/21 08:33:50;;;;;;;1999.90;999.90;;;;;;;;;;4970242;28;20275;-69
2024/03/21 08:36:34;;;;;;;1999.90;999.90;;;;;;;;;;4972859;28;20221;-69
2024/03/21 08:39:19;;;;;;;1999.90;999.90;;;;;;;;;;4972553;28;20370;-69
2024/03/21 08:42:05;;;;;;;1999.90;999.90;;;;;;;;;;4972663;28;20216;-69
2024/03/21 08:44:52;;;;;;;1999.90;999.90;;;;;;;;;;4972567;28;20677;-69
2024/03/21 08:47:36;;;;;;;1999.90;999.90;;;;;;;;;;4972354;28;20699;-69
2024/03/21 08:50:21;;;;;;;1999.90;999.90;;;;;;;;;;4972565;28;20644;-69
2024/03/21 08:53:05;;;;;;;1999.90;999.90;;;;;;;;;;4972904;28;20203;-69
2024/03/21 08:55:50;;;;;;;1999.90;999.90;;;;;;;;;;4972153;28;20204;-69
2024/03/21 08:58:35;;;;;;;1999.90;999.90;;;;;;;;;;4972576;28;20592;-69
2024/03/21 09:01:19;;;;;;;1999.90;999.90;;;;;;;;;;4975847;28;20286;-69
2024/03/21 09:04:04;;;;;;;1999.90;999.90;;;;;;;;;;4974246;28;20427;-70
2024/03/21 09:06:49;;;;;;;1999.90;999.90;;;;;;;;;;4976056;28;20264;-69
2024/03/21 09:09:34;;;;;;;1999.90;999.90;;;;;;;;;;4976109;28;20233;-69
2024/03/21 09:12:19;;;;;;;1999.90;999.90;;;;;;;;;;4975706;28;20208;-69
2024/03/21 09:15:05;;;;;;;1999.90;999.90;;;;;;;;;;4975547;28;20257;-70
2024/03/21 09:17:50;;;;;;;1999.90;999.90;;;;;;;;;;4975856;28;20211;-70
2024/03/21 09:20:35;;;;;;;1999.90;999.90;;;;;;;;;;4976013;28;20722;-70
2024/03/21 09:23:21;;;;;;;1999.90;999.90;;;;;;;;;;4975882;28;20204;-70
2024/03/21 09:26:06;;;;;;;1999.90;999.90;;;;;;;;;;4975034;28;20206;-69
2024/03/21 09:28:54;;;;;;;1999.90;999.90;;;;;;;;;;4975511;28;20283;-69
2024/03/21 09:31:39;;;;;;;1999.90;999.90;;;;;;;;;;4975792;28;20228;-69
2024/03/21 09:34:24;;;;;;;1999.90;999.90;;;;;;;;;;4975436;28;20269;-69
2024/03/21 09:37:08;;;;;;;1999.90;999.90;;;;;;;;;;4975666;28;20208;-70
2024/03/21 09:39:52;;;;;;;1999.90;999.90;;;;;;;;;;4975508;28;20601;-70
2024/03/21 09:42:36;;;;;;;1999.90;999.90;;;;;;;;;;4975389;28;20212;-69
2024/03/21 09:45:24;;;;;;;1999.90;999.90;;;;;;;;;;4975243;28;20207;-70
2024/03/21 09:48:09;;;;;;;1999.90;999.90;;;;;;;;;;4975531;28;20211;-70
2024/03/21 09:50:54;;;;;;;1999.90;999.90;;;;;;;;;;4975902;28;20207;-69
2024/03/21 09:53:38;;;;;;;1999.90;999.90;;;;;;;;;;4975382;28;20642;-70
2024/03/21 09:56:23;;;;;;;1999.90;999.90;;;;;;;;;;4974942;28;20466;-69
2024/03/21 09:59:10;;;;;;;1999.90;999.90;;;;;;;;;;4975594;28;20722;-69
2024/03/21 10:01:55;;;;;;;1999.90;999.90;;;;;;;;;;4975544;28;20276;-70
2024/03/21 10:04:44;;;;;;;1999.90;999.90;;;;;;;;;;4975176;28;20676;-70
2024/03/21 10:07:29;;;;;;;1999.90;999.90;;;;;;;;;;4975675;28;20215;-70
2024/03/21 10:10:13;;;;;;;1999.90;999.90;;;;;;;;;;4974402;28;20231;-70
2024/03/21 10:12:58;;;;;;;1999.90;999.90;;;;;;;;;;4974909;28;20260;-69
2024/03/21 10:15:42;;;;;;;1999.90;999.90;;;;;;;;;;4972478;28;20980;-70
2024/03/21 10:18:27;;;;;;;1999.90;999.90;;;;;;;;;;4974202;28;20208;-70
2024/03/21 10:21:13;;;;;;;1999.90;999.90;;;;;;;;;;4975010;28;20620;-69
2024/03/21 10:24:02;;;;;;;1999.90;999.90;;;;;;;;;;4974603;28;20600;-70
2024/03/21 10:26:47;;;;;;;1999.90;999.90;;;;;;;;;;4974290;28;20222;-70
2024/03/21 10:29:31;;;;;;;1999.90;999.90;;;;;;;;;;4972637;28;20227;-70
2024/03/21 10:32:18;;;;;;;1999.90;999.90;;;;;;;;;;4974392;28;20211;-70
2024/03/21 10:35:02;;;;;;;1999.90;999.90;;;;;;;;;;4973911;28;20220;-70
2024/03/21 10:37:48;;;;;;;1999.90;999.90;;;;;;;;;;4965205;28;20211;-70
2024/03/21 10:40:33;;;;;;;1999.90;999.90;;;;;;;;;;4974521;28;20238;-70
2024/03/21 10:43:19;;;;;;;1999.90;999.90;;;;;;;;;;4974567;28;20697;-70
2024/03/21 10:46:03;;;;;;;1999.90;999.90;;;;;;;;;;4973801;28;20307;-70
2024/03/21 10:48:48;;;;;;;1999.90;999.90;;;;;;;;;;4974229;28;20231;-70
2024/03/21 10:51:39;;;;;;;1999.90;999.90;;;;;;;;;;4974514;28;20211;-71
2024/03/21 10:54:26;;;;;;;1999.90;999.90;;;;;;;;;;4973482;28;20219;-69
2024/03/21 10:57:16;;;;;;;1999.90;999.90;;;;;;;;;;4974316;28;20597;-70
2024/03/21 11:00:06;;;;;;;1999.90;999.90;;;;;;;;;;4974160;28;20227;-69
2024/03/21 11:02:52;;;;;;;1999.90;999.90;;;;;;;;;;4974318;28;20271;-69
2024/03/21 11:05:37;;;;;;;1999.90;999.90;;;;;;;;;;4973256;28;20204;-67
2024/03/21 11:08:28;;;;;;;1999.90;999.90;;;;;;;;;;4954453;28;20220;-69
2024/03/21 11:11:13;;;;;;;1999.90;999.90;;;;;;;;;;4964166;28;20216;-69
2024/03/21 11:14:02;;;;;;;1999.90;999.90;;;;;;;;;;4972889;28;20214;-69
2024/03/21 11:16:46;;;;;;;1999.90;999.90;;;;;;;;;;4973484;28;20421;-68
2024/03/21 11:19:30;;;;;;;1999.90;999.90;;;;;;;;;;4972930;28;20711;-69
2024/03/21 11:22:14;;;;;;;1999.90;999.90;;;;;;;;;;4972574;28;20223;-68
2024/03/21 11:25:00;;;;;;;1999.90;999.90;;;;;;;;;;4963228;28;20331;-68
2024/03/21 11:27:45;;;;;;;1999.90;999.90;;;;;;;;;;4973474;28;20211;-67
2024/03/21 11:30:30;;;;;;;1999.90;999.90;;;;;;;;;;4953854;28;20284;-68
2024/03/21 11:33:14;;;;;;;1999.90;999.90;;;;;;;;;;4954209;29;20208;-69
2024/03/21 11:36:00;;;;;;;1999.90;999.90;;;;;;;;;;4953582;28;20584;-68
2024/03/21 11:38:44;;;;;;;1999.90;999.90;;;;;;;;;;4954012;28;20243;-67
2024/03/21 11:41:31;;;;;;;1999.90;999.90;;;;;;;;;;4966424;28;20212;-67
2024/03/21 11:44:17;;;;;;;1999.90;999.90;;;;;;;;;;4972854;28;20204;-68
2024/03/21 11:47:02;;;;;;;1999.90;999.90;;;;;;;;;;4971911;28;20431;-70
2024/03/21 11:49:48;;;;;;;1999.90;999.90;;;;;;;;;;4972955;28;20291;-70
2024/03/21 11:52:33;;;;;;;1999.90;999.90;;;;;;;;;;4972635;28;20215;-68
2024/03/21 11:55:19;;;;;;;1999.90;999.90;;;;;;;;;;4972298;28;20255;-70
2024/03/21 11:58:04;;;;;;;1999.90;999.90;;;;;;;;;;4970678;28;20287;-69
2024/03/21 12:00:49;;;;;;;1999.90;999.90;;;;;;;;;;4968855;28;20724;-69
2024/03/21 12:03:34;;;;;;;1999.90;999.90;;;;;;;;;;4971426;28;20312;-68
2024/03/21 12:06:18;;;;;;;1999.90;999.90;;;;;;;;;;4970853;28;20419;-69
2024/03/21 12:09:03;;;;;;;1999.90;999.90;;;;;;;;;;4972969;28;20352;-69
2024/03/21 12:11:48;;;;;;;1999.90;999.90;;;;;;;;;;4973341;28;20212;-69
2024/03/21 12:14:33;;;;;;;1999.90;999.90;;;;;;;;;;4972683;28;20319;-69
2024/03/21 12:17:19;;;;;;;1999.90;999.90;;;;;;;;;;4973095;28;20387;-69
2024/03/21 12:20:05;;;;;;;1999.90;999.90;;;;;;;;;;4972462;28;20332;-69
2024/03/21 12:22:49;;;;;;;1999.90;999.90;;;;;;;;;;4972586;28;20215;-69
2024/03/21 12:25:34;;;;;;;1999.90;999.90;;;;;;;;;;4971823;28;20199;-69
2024/03/21 12:28:19;;;;;;;1999.90;999.90;;;;;;;;;;4972176;28;20239;-68
2024/03/21 12:31:05;;;;;;;1999.90;999.90;;;;;;;;;;4972826;28;20787;-69
2024/03/21 12:33:52;;;;;;;1999.90;999.90;;;;;;;;;;4973478;28;20295;-69
2024/03/21 12:36:38;;;;;;;1999.90;999.90;;;;;;;;;;4976247;28;20247;-68
2024/03/21 12:39:21;;;;;;;1999.90;999.90;;;;;;;;;;4976039;28;20239;-69
2024/03/21 12:42:07;;;;;;;1999.90;999.90;;;;;;;;;;4976473;28;20234;-69
2024/03/21 12:44:51;;;;;;;1999.90;999.90;;;;;;;;;;4976269;28;20287;-69
2024/03/21 12:47:36;;;;;;;1999.90;999.90;;;;;;;;;;4976762;28;20207;-69
2024/03/21 12:50:21;;;;;;;1999.90;999.90;;;;;;;;;;4976358;28;20310;-69
2024/03/21 12:53:06;;;;;;;1999.90;999.90;;;;;;;;;;4976507;28;20216;-67
2024/03/21 12:55:50;;;;;;;1999.90;999.90;;;;;;;;;;4976174;28;20279;-67
2024/03/21 12:58:36;;;;;;;1999.90;999.90;;;;;;;;;;4975636;28;20403;-69
2024/03/21 13:01:20;;;;;;;1999.90;999.90;;;;;;;;;;4976089;28;20251;-68
2024/03/21 13:04:05;;;;;;;1999.90;999.90;;;;;;;;;;4976259;28;20196;-68
2024/03/21 13:06:51;;;;;;;1999.90;999.90;;;;;;;;;;4976273;28;20251;-69
2024/03/21 13:09:36;;;;;;;1999.90;999.90;;;;;;;;;;4976080;28;20232;-69
2024/03/21 13:12:22;;;;;;;1999.90;999.90;;;;;;;;;;4956948;28;20209;-68
2024/03/21 13:15:07;;;;;;;1999.90;999.90;;;;;;;;;;4956578;29;20606;-69
2024/03/21 13:17:52;;;;;;;1999.90;999.90;;;;;;;;;;4962745;28;20203;-68
2024/03/21 13:20:36;;;;;;;1999.90;999.90;;;;;;;;;;4975348;28;20227;-69
2024/03/21 13:23:22;;;;;;;1999.90;999.90;;;;;;;;;;4975067;28;20203;-68
2024/03/21 13:26:06;;;;;;;1999.90;999.90;;;;;;;;;;4974707;28;20204;-68
2024/03/21 13:28:51;;;;;;;1999.90;999.90;;;;;;;;;;4975310;28;20310;-69
2024/03/21 13:31:35;;;;;;;1999.90;999.90;;;;;;;;;;4975158;28;20403;-69
2024/03/21 13:34:20;;;;;;;1999.90;999.90;;;;;;;;;;4973821;28;20486;-68
2024/03/21 13:37:04;;;;;;;1999.90;999.90;;;;;;;;;;4975762;28;20723;-69
2024/03/21 13:39:50;;;;;;;1999.90;999.90;;;;;;;;;;4973077;28;20243;-67
2024/03/21 13:42:34;;;;;;;1999.90;999.90;;;;;;;;;;4960680;28;20220;-69
2024/03/21 13:45:19;;;;;;;1999.90;999.90;;;;;;;;;;4973898;28;20336;-69
2024/03/21 13:48:03;;;;;;;1999.90;999.90;;;;;;;;;;4974987;28;20316;-67
2024/03/21 13:50:48;;;;;;;1999.90;999.90;;;;;;;;;;4975641;28;20208;-70
2024/03/21 13:53:32;;;;;;;1999.90;999.90;;;;;;;;;;4973797;28;20427;-69
2024/03/21 13:56:19;;;;;;;1999.90;999.90;;;;;;;;;;4966816;28;20655;-68
2024/03/21 13:59:02;;;;;;;1999.90;999.90;;;;;;;;;;4965027;28;20227;-69
2024/03/21 14:01:47;;;;;;;1999.90;999.90;;;;;;;;;;4974502;28;20208;-69
2024/03/21 14:04:32;;;;;;;1999.90;999.90;;;;;;;;;;4974512;28;20203;-69
2024/03/21 14:07:17;;;;;;;1999.90;999.90;;;;;;;;;;4974592;28;20340;-68
2024/03/21 14:10:04;;;;;;;1999.90;999.90;;;;;;;;;;4974728;28;20224;-69
2024/03/21 14:12:50;;;;;;;1999.90;999.90;;;;;;;;;;4973364;28;20243;-69
2024/03/21 14:15:34;;;;;;;1999.90;999.90;;;;;;;;;;4975670;28;20594;-69
2024/03/21 14:18:20;;;;;;;1999.90;999.90;;;;;;;;;;4974783;28;20227;-69
2024/03/21 14:21:04;;;;;;;1999.90;999.90;;;;;;;;;;4990545;28;20209;-68
2024/03/21 14:23:49;;;;;;;1999.90;999.90;;;;;;;;;;4976523;28;20723;-68
2024/03/21 14:26:34;;;;;;;1999.90;999.90;;;;;;;;;;4986674;28;20203;-69
2024/03/21 14:29:21;;;;;;;1999.90;999.90;;;;;;;;;;4978823;28;20407;-68
2024/03/21 14:32:05;;;;;;;1999.90;999.90;;;;;;;;;;4974633;28;20697;-69
2024/03/21 14:34:50;;;;;;;1999.90;999.90;;;;;;;;;;4981467;28;20224;-69
2024/03/21 14:37:34;;;;;;;1999.90;999.90;;;;;;;;;;4975182;28;20215;-69
2024/03/21 14:40:19;;;;;;;1999.90;999.90;;;;;;;;;;4973159;28;20307;-68
2024/03/21 14:43:03;;;;;;;1999.90;999.90;;;;;;;;;;4975577;28;20211;-68
2024/03/21 14:45:51;;;;;;;1999.90;999.90;;;;;;;;;;4978489;28;20316;-68
2024/03/21 14:48:35;;;;;;;1999.90;999.90;;;;;;;;;;4982154;28;20674;-68
2024/03/21 14:51:19;;;;;;;1999.90;999.90;;;;;;;;;;4973515;28;20243;-67
2024/03/21 14:54:04;;;;;;;1999.90;999.90;;;;;;;;;;4973377;28;20211;-68
2024/03/21 14:56:49;;;;;;;1999.90;999.90;;;;;;;;;;4976315;28;20708;-68
2024/03/21 14:59:33;;;;;;;1999.90;999.90;;;;;;;;;;4978132;28;20270;-68
2024/03/21 15:02:19;;;;;;;1999.90;999.90;;;;;;;;;;4973344;28;20203;-68
2024/03/21 15:05:04;;;;;;;1999.90;999.90;;;;;;;;;;4974977;28;20286;-67
2024/03/21 15:07:49;;;;;;;1999.90;999.90;;;;;;;;;;4989644;28;20211;-68
2024/03/21 15:10:33;;;;;;;1999.90;999.90;;;;;;;;;;4986306;28;20239;-66
2024/03/21 15:13:18;;;;;;;1999.90;999.90;;;;;;;;;;4972883;28;20595;-66
2024/03/21 15:16:02;;;;;;;1999.90;999.90;;;;;;;;;;4980348;28;20246;-68
2024/03/21 15:18:49;;;;;;;1999.90;999.90;;;;;;;;;;4975735;28;20277;-67
2024/03/21 15:21:33;;;;;;;1999.90;999.90;;;;;;;;;;4986897;28;20575;-68
2024/03/21 15:24:18;;;;;;;1999.90;999.90;;;;;;;;;;4983616;28;20410;-68
2024/03/21 15:27:03;;;;;;;1999.90;999.90;;;;;;;;;;4976738;28;20203;-66
2024/03/21 15:29:48;;;;;;;1999.90;999.90;;;;;;;;;;4985522;28;20604;-66
2024/03/21 15:32:32;;;;;;;1999.90;999.90;;;;;;;;;;4977029;28;20212;-66
2024/03/21 15:35:20;;;;;;;1999.90;999.90;;;;;;;;;;4973205;28;20676;-67
2024/03/21 15:38:04;;;;;;;1999.90;999.90;;;;;;;;;;4975248;28;20333;-67
2024/03/21 15:40:49;;;;;;;1999.90;999.90;;;;;;;;;;4973880;28;20226;-67
2024/03/21 15:43:37;;;;;;;1999.90;999.90;;;;;;;;;;4977538;28;20211;-68
2024/03/21 15:46:23;;;;;;;1999.90;999.90;;;;;;;;;;4980281;28;20208;-67
2024/03/21 15:49:08;;;;;;;1999.90;999.90;;;;;;;;;;4971983;28;20223;-67
2024/03/21 15:51:54;;;;;;;1999.90;999.90;;;;;;;;;;4977478;28;20239;-68
2024/03/21 15:54:39;;;;;;;1999.90;999.90;;;;;;;;;;4982080;28;20207;-67
2024/03/21 15:57:23;;;;;;;1999.90;999.90;;;;;;;;;;4973721;28;20207;-66
2024/03/21 16:00:09;;;;;;;1999.90;999.90;;;;;;;;;;4984753;28;20289;-67
2024/03/21 16:02:55;;;;;;;1999.90;999.90;;;;;;;;;;4981742;28;20203;-67
2024/03/21 16:05:39;;;;;;;1999.90;999.90;;;;;;;;;;4978241;28;20574;-67
2024/03/21 16:08:25;;;;;;;1999.90;999.90;;;;;;;;;;4986741;28;20203;-68
2024/03/21 16:11:09;;;;;;;1999.90;999.90;;;;;;;;;;4981474;28;20578;-67
2024/03/21 16:13:55;;;;;;;1999.90;999.90;;;;;;;;;;4980442;28;20270;-68
2024/03/21 16:16:39;;;;;;;1999.90;999.90;;;;;;;;;;4980207;28;20923;-65
2024/03/21 16:19:24;;;;;;;1999.90;999.90;;;;;;;;;;4981690;28;20727;-67
2024/03/21 16:22:09;;;;;;;1999.90;999.90;;;;;;;;;;4978638;28;20223;-67
2024/03/21 16:24:56;;;;;;;1999.90;999.90;;;;;;;;;;4985024;28;20208;-68
2024/03/21 16:27:41;;;;;;;1999.90;999.90;;;;;;;;;;4986418;28;20710;-67
2024/03/21 16:30:25;;;;;;;1999.90;999.90;;;;;;;;;;4977056;28;20234;-69
2024/03/21 16:33:10;;;;;;;1999.90;999.90;;;;;;;;;;4983730;28;20195;-68
2024/03/21 16:35:54;;;;;;;1999.90;999.90;;;;;;;;;;4971986;28;20216;-68
2024/03/21 16:38:41;;;;;;;1999.90;999.90;;;;;;;;;;4974541;28;20231;-68
2024/03/21 16:41:26;;;;;;;1999.90;999.90;;;;;;;;;;4978143;28;20211;-68
2024/03/21 16:44:11;;;;;;;1999.90;999.90;;;;;;;;;;4976585;28;20203;-68
2024/03/21 16:46:55;;;;;;;1999.90;999.90;;;;;;;;;;4982154;28;20286;-68
2024/03/21 16:49:40;;;;;;;1999.90;999.90;;;;;;;;;;4971735;28;20490;-67
2024/03/21 16:52:24;;;;;;;1999.90;999.90;;;;;;;;;;4990690;28;20214;-67
2024/03/21 16:55:13;;;;;;;1999.90;999.90;;;;;;;;;;4976829;28;20231;-67
2024/03/21 16:57:58;;;;;;;1999.90;999.90;;;;;;;;;;4972494;28;20204;-67
2024/03/21 17:00:43;;;;;;;1999.90;999.90;;;;;;;;;;4987969;28;20307;-68
2024/03/21 17:03:27;;;;;;;1999.90;999.90;;;;;;;;;;4976052;28;20279;-67
2024/03/21 17:06:12;;;;;;;1999.90;999.90;;;;;;;;;;4971719;28;20200;-68
2024/03/21 17:08:56;;;;;;;1999.90;999.90;;;;;;;;;;4972372;28;20234;-68
2024/03/21 17:11:42;;;;;;;1999.90;999.90;;;;;;;;;;4970931;28;20498;-67
2024/03/21 17:14:28;;;;;;;1999.90;999.90;;;;;;;;;;4972275;28;20204;-68
2024/03/21 17:17:13;;;;;;;1999.90;999.90;;;;;;;;;;4972109;28;20295;-67
2024/03/21 17:19:57;;;;;;;1999.90;999.90;;;;;;;;;;4973653;28;20234;-68
2024/03/21 17:22:43;;;;;;;1999.90;999.90;;;;;;;;;;4978270;28;20250;-68
2024/03/21 17:25:27;;;;;;;1999.90;999.90;;;;;;;;;;4980437;28;20211;-68
2024/03/21 17:28:12;;;;;;;1999.90;999.90;;;;;;;;;;4983778;28;20211;-68
2024/03/21 17:30:58;;;;;;;1999.90;999.90;;;;;;;;;;4986192;28;20311;-68
2024/03/21 17:33:43;;;;;;;1999.90;999.90;;;;;;;;;;4983615;28;20206;-67
2024/03/21 17:36:27;;;;;;;1999.90;999.90;;;;;;;;;;4975184;28;20616;-68
2024/03/21 17:39:12;;;;;;;1999.90;999.90;;;;;;;;;;4978956;28;20311;-68
2024/03/21 17:41:55;;;;;;;1999.90;999.90;;;;;;;;;;4981375;28;20627;-68
2024/03/21 17:44:40;;;;;;;1999.90;999.90;;;;;;;;;;4978812;28;20411;-68
2024/03/21 17:47:26;;;;;;;1999.90;999.90;;;;;;;;;;4974509;28;20205;-65
2024/03/21 17:50:11;;;;;;;1999.90;999.90;;;;;;;;;;4980092;28;20283;-67
2024/03/21 17:52:55;;;;;;;1999.90;999.90;;;;;;;;;;4985971;28;20347;-68
2024/03/21 17:55:40;;;;;;;1999.90;999.90;;;;;;;;;;4985998;28;20216;-68
2024/03/21 17:58:23;;;;;;;1999.90;999.90;;;;;;;;;;4980678;28;20635;-68
2024/03/21 18:01:09;;;;;;;1999.90;999.90;;;;;;;;;;4980408;28;20687;-69